This demonstration page uses our WeatherBlox Daily Observations layout. Learn more.

41.55636, -103.73856

Hourly Observations for February 17, 2019

Temp ( °F °C ) Dew Point ( °F °C ) Humidity (%) Winds ( mph kmh ) Pressure ( in mb ) Visibility ( mi km ) Precip ( " mm )
12:58 am 00:58 Windy with Snow Showers Likely 28 -2.2 17 -8.2 64 64 NNW 20 31 29.74 1007 10 16.0934 N/A
1:58 am 01:58 Windy with Snow Showers Likely 25 -3.8 16 -8.9 68 68 NNW 25 41 29.8 1009 10 16.0934 N/A
2:58 am 02:58 Mostly Cloudy 24 -4.5 16 -8.8 72 72 NNW 24 39 29.76 1008 10 16.0934 N/A
3:58 am 03:58 Mostly Cloudy 22 -5.4 16 -9 76 76 NNW 16 26 29.77 1008 10 16.0934 N/A
4:58 am 04:58 Mostly Cloudy 22 -5.8 16 -8.8 80 80 NNW 16 26 29.79 1009 10 16.0934 N/A
5:58 am 05:58 Mostly Cloudy 21 -6.3 17 -8.2 87 87 NNW 13 20 29.81 1010 10 16.0934 N/A
6:58 am 06:58 Cloudy with Light Snow 21 -6.3 16 -9 81 81 NNW 18 30 29.82 1010 10 16.0934 N/A
7:58 am 07:58 Mostly Cloudy with Scattered Snow Showers 20 -6.7 16 -8.9 85 85 N 15 24 29.83 1010 6 9.65604 N/A
8:58 am 08:58 Mostly Cloudy with Scattered Snow Showers 18 -7.6 14 -10 83 83 NNW 17 28 29.86 1011 10 16.0934 N/A
9:58 am 09:58 Mostly Cloudy with Light Snow Showers 18 -8 14 -10.2 84 84 NNW 14 22 29.86 1011 10 16.0934 N/A
10:58 am 10:58 Cloudy with Light Snow 17 -8.1 13 -10.3 84 84 NNW 15 24 29.89 1012 10 16.0934 N/A
11:58 am 11:58 Mostly Cloudy with Scattered Snow Showers 13 -10.8 10 -12.5 87 87 N 13 20 29.93 1014 4 6.43736 N/A
12:58 pm 12:58 Mostly Cloudy with Scattered Snow Showers 10 -12.2 7 -13.8 88 88 NNE 10 17 29.98 1015 10 16.0934 N/A
1:58 pm 13:58 Mostly Cloudy with Scattered Snow Showers 9 -12.6 6 -14.3 87 87 N 12 19 30 1016 5 8.0467 N/A
2:58 pm 14:58 Mostly Cloudy with Scattered Snow Showers 8 -13.1 6 -14.6 89 89 N 14 22 30.06 1018 10 16.0934 N/A
3:58 pm 15:58 Mostly Cloudy with Scattered Snow Showers 10 -12.3 6 -14.2 86 86 N 13 20 30.08 1019 10 16.0934 N/A
4:58 pm 16:58 Mostly Cloudy with Scattered Snow Showers 11 -11.8 6 -14.3 82 82 N 16 26 30.09 1019 10 16.0934 N/A
5:58 pm 17:58 Mostly Cloudy with Scattered Snow Showers 12 -10.9 5 -14.8 73 73 N 20 31 30.11 1020 10 16.0934 N/A
6:58 pm 18:58 Partly Cloudy 15 -9.4 3 -15.9 60 60 N 23 37 30.1 1019 10 16.0934 N/A
7:58 pm 19:58 Mostly Sunny 17 -8.4 3 -15.9 55 55 N 23 37 30.07 1018 10 16.0934 N/A
8:58 pm 20:58 Mostly Sunny 18 -7.8 4 -15.7 53 53 NNW 15 24 30.1 1019 10 16.0934 N/A
9:58 pm 21:58 Partly Cloudy 18 -7.7 4 -15.7 53 53 N 17 28 30.11 1020 10 16.0934 N/A
10:58 pm 22:58 Mostly Sunny 16 -8.7 3 -15.9 56 56 N 15 24 30.15 1021 10 16.0934 N/A

Powered by AerisWeather